Anahola, Hawaii
Current Conditions -  °F | °C
As of 4:53 AM on Friday 31 Oct 2014 (Local Time) from PHLI Reporting Station
Broken Clouds Broken Clouds  
Wind Chill: 77°   Ceiling: 5000
Heat Index: 79°   Visibility: 10mi
Dew Point: 69°   Wind: 16mph
Humidity: 76%   Direction: 50°NE
Pressure: 30.06"   Gusts: NA
Location:  22.14°N, 159.31°W
Report Text: PHLI 311453Z 05014KT 10SM FEW023 BKN050 25/21 A3006 RMK AO2 SLP176 T02500206 56004
Loading
Personal Weather Stations






























Interactive Weather Map
Tropical Storm Tracking
New forecast layout! Learn more

10-Day Weather Forecast

Advertisements
Track Severe Weather on mobile